Time;durP1;ratioP1;P1;durP2;ratioP2;P2;SDS_P1;SDS_P2;PMS_P1;PMS_P2;Temp;Humidity;BMP_temperature;BMP_pressure;BME280_temperature;BME280_humidity;BME280_pressure;Samples;Min_cycle;Max_cycle;Signal;HPM_P1;HPM_P2
2022/07/13 00:02:10;;;;;;;;;7.25;7.25;;;;;28.71;28.00;101729.81;5035057;28;45452;-70
2022/07/13 00:04:36;;;;;;;;;5.75;5.00;;;;;28.68;28.18;101725.47;5033262;28;45458;-70
2022/07/13 00:07:02;;;;;;;;;6.50;4.75;;;;;28.64;27.66;101713.16;5033751;28;46198;-71
2022/07/13 00:09:27;;;;;;;;;5.50;5.50;;;;;28.58;28.27;101718.91;5033781;28;45443;-71
2022/07/13 00:11:53;;;;;;;;;5.75;5.50;;;;;28.49;27.91;101701.44;5035714;28;45598;-71
2022/07/13 00:14:18;;;;;;;;;5.25;5.25;;;;;28.49;28.13;101717.59;5030099;28;45556;-71
2022/07/13 00:16:45;;;;;;;;;8.75;6.00;;;;;28.52;28.48;101727.31;5031851;28;46406;-70
2022/07/13 00:19:11;;;;;;;;;7.00;6.25;;;;;28.50;28.64;101718.47;5038844;28;45783;-69
2022/07/13 00:21:37;;;;;;;;;5.00;5.00;;;;;28.25;28.47;101674.06;5033571;28;45514;-69
2022/07/13 00:24:07;;;;;;;;;8.50;5.50;;;;;28.54;28.45;101720.03;5033247;28;45497;-69
2022/07/13 00:26:32;;;;;;;;;4.50;4.50;;;;;28.49;28.31;101712.19;5033496;28;46124;-69
2022/07/13 00:28:58;;;;;;;;;8.50;5.00;;;;;28.46;28.35;101712.38;5023796;28;45362;-69
2022/07/13 00:31:24;;;;;;;;;5.75;5.75;;;;;28.39;28.15;101699.34;5036327;28;45404;-70
2022/07/13 00:33:49;;;;;;;;;6.00;4.75;;;;;28.38;27.94;101713.75;5030421;28;45348;-70
2022/07/13 00:36:15;;;;;;;;;7.00;5.00;;;;;28.34;28.21;101713.94;5032772;28;46458;-69
2022/07/13 00:38:41;;;;;;;;;5.50;4.50;;;;;28.35;28.38;101714.78;5034065;28;45846;-70
2022/07/13 00:41:07;;;;;;;;;5.00;5.00;;;;;28.16;28.28;101693.44;5033924;28;45489;-70
2022/07/13 00:43:33;;;;;;;;;7.25;6.00;;;;;28.20;28.30;101700.38;5033997;28;45562;-70
2022/07/13 00:45:59;;;;;;;;;6.75;6.75;;;;;28.17;28.54;101694.31;5031498;28;45661;-69
2022/07/13 00:48:33;;;;;;;;;7.25;6.00;;;;;28.19;28.44;101695.06;5014877;28;45454;-69
2022/07/13 00:50:59;;;;;;;;;5.75;5.00;;;;;28.17;28.22;101689.78;5040694;28;45428;-70
2022/07/13 00:53:26;;;;;;;;;9.75;8.75;;;;;28.20;28.85;101703.06;5053905;28;45867;-70
2022/07/13 00:55:52;;;;;;;;;14.33;13.00;;;;;28.18;29.16;101705.00;5057493;28;45446;-71
2022/07/13 00:58:18;;;;;;;;;15.67;15.00;;;;;28.16;29.30;101693.44;5055218;28;45975;-72
2022/07/13 01:00:45;;;;;;;;;18.33;18.33;;;;;28.20;29.09;101699.53;5053338;28;45740;-69
2022/07/13 01:03:10;;;;;;;;;33.33;28.33;;;;;28.18;29.55;101699.59;5056461;28;45401;-72
2022/07/13 01:05:36;;;;;;;;;33.33;29.33;;;;;28.20;29.51;101689.63;5057661;28;45887;-71
2022/07/13 01:08:11;;;;;;;;;40.00;31.33;;;;;28.08;29.22;101676.84;5058580;28;45496;-72
2022/07/13 01:10:38;;;;;;;;;25.67;21.67;;;;;28.12;28.99;101684.66;5057156;28;45321;-72
2022/07/13 01:13:04;;;;;;;;;23.67;21.33;;;;;28.16;29.11;101681.78;5050563;28;45951;-72
2022/07/13 01:15:32;;;;;;;;;16.00;15.00;;;;;28.16;29.18;101685.34;5044133;28;45453;-71
2022/07/13 01:17:58;;;;;;;;;20.00;19.00;;;;;28.10;29.42;101691.97;5054201;28;45280;-71
2022/07/13 01:20:25;;;;;;;;;13.33;11.00;;;;;27.90;29.48;101658.09;5053878;28;46074;-72
2022/07/13 01:22:52;;;;;;;;;12.67;11.00;;;;;28.09;30.07;101697.44;5043165;28;45485;-71
2022/07/13 01:25:19;;;;;;;;;12.00;10.33;;;;;28.02;29.63;101685.25;5059945;28;46232;-72
2022/07/13 01:27:48;;;;;;;;;9.75;9.75;;;;;28.02;29.32;101688.81;5056399;28;46033;-71
2022/07/13 01:30:15;;;;;;;;;14.00;11.00;;;;;27.97;29.31;101682.81;5054101;28;45402;-71
2022/07/13 01:32:50;;;;;;;;;13.67;10.33;;;;;27.96;29.71;101689.19;5058469;28;45594;-71
2022/07/13 01:35:17;;;;;;;;;10.67;8.67;;;;;27.94;29.79;101684.84;5057183;28;46529;-72
2022/07/13 01:37:44;;;;;;;;;10.67;8.67;;;;;27.95;29.80;101690.13;5057021;28;45463;-69
2022/07/13 01:40:11;;;;;;;;;8.00;5.75;;;;;27.95;29.63;101686.56;5055172;28;45362;-70
2022/07/13 01:42:48;;;;;;;;;7.00;7.00;;;;;27.69;29.75;101643.97;5035419;28;45746;-71
2022/07/13 01:45:16;;;;;;;;;9.67;9.67;;;;;27.97;29.56;101679.28;5053415;28;45480;-72
2022/07/13 01:47:44;;;;;;;;;8.50;6.75;;;;;27.91;29.77;101677.81;5055912;28;45531;-71
2022/07/13 01:50:12;;;;;;;;;8.50;7.75;;;;;27.89;29.57;101683.25;5043495;28;45404;-71
2022/07/13 01:52:40;;;;;;;;;8.75;7.75;;;;;27.82;29.86;101679.16;5044922;28;45493;-72
2022/07/13 01:55:09;;;;;;;;;6.25;6.00;;;;;27.85;29.89;101688.91;5061397;28;46267;-72
2022/07/13 01:57:35;;;;;;;;;7.25;7.25;;;;;27.72;29.75;101664.47;5061005;28;45731;-71
2022/07/13 02:00:04;;;;;;;;;7.00;7.00;;;;;27.83;29.90;101680.03;5061224;28;45552;-71
2022/07/13 02:02:30;;;;;;;;;8.67;7.67;;;;;27.77;30.09;101673.16;5056969;28;45556;-72
2022/07/13 02:04:56;;;;;;;;;10.33;8.00;;;;;27.72;30.19;101680.63;5057465;28;46234;-71
2022/07/13 02:07:22;;;;;;;;;11.33;10.00;;;;;27.49;30.26;101653.13;5060892;28;45386;-71
2022/07/13 02:09:49;;;;;;;;;8.67;8.67;;;;;27.42;30.85;101665.19;5061257;28;45499;-71
2022/07/13 02:12:17;;;;;;;;;12.67;11.00;;;;;27.40;31.05;101669.78;5057813;28;45393;-71
2022/07/13 02:14:44;;;;;;;;;10.67;9.67;;;;;27.30;31.39;101673.91;5056782;28;46174;-70
2022/07/13 02:17:10;;;;;;;;;9.67;9.33;;;;;27.24;31.34;101677.81;5056708;28;45375;-71
2022/07/13 02:19:36;;;;;;;;;11.67;10.00;;;;;27.08;31.54;101650.81;5058292;28;45445;-71
2022/07/13 02:22:02;;;;;;;;;10.33;8.33;;;;;27.14;31.82;101662.19;5061167;28;45287;-73
2022/07/13 02:24:27;;;;;;;;;9.00;9.00;;;;;27.16;31.86;101663.84;5058057;28;46580;-72
2022/07/13 02:26:53;;;;;;;;;9.33;8.67;;;;;27.06;32.52;101658.09;5038327;28;45560;-74
2022/07/13 02:29:19;;;;;;;;;10.00;10.00;;;;;27.03;32.61;101668.16;5060644;28;45346;-72
2022/07/13 02:31:44;;;;;;;;;11.00;9.33;;;;;26.81;33.13;101650.47;5060113;28;45548;-71
2022/07/13 02:34:10;;;;;;;;;11.67;10.33;;;;;26.80;33.59;101663.97;5057246;28;46065;-70
2022/07/13 02:36:38;;;;;;;;;13.33;10.67;;;;;26.54;33.26;101639.31;5055793;28;45560;-71
2022/07/13 02:39:03;;;;;;;;;10.00;8.33;;;;;26.63;33.38;101652.28;5056589;28;45410;-71
2022/07/13 02:41:29;;;;;;;;;9.67;9.00;;;;;26.63;33.59;101654.94;5059520;28;45221;-71
2022/07/13 02:43:58;;;;;;;;;9.67;9.67;;;;;26.64;33.71;101658.50;5055913;28;45610;-71
2022/07/13 02:46:24;;;;;;;;;13.00;9.67;;;;;26.54;34.25;101643.81;5046708;28;45481;-72
2022/07/13 02:48:49;;;;;;;;;10.00;10.00;;;;;26.59;33.83;101660.56;5055526;28;45426;-71
2022/07/13 02:51:15;;;;;;;;;11.00;9.67;;;;;26.49;34.79;101653.88;5043059;28;45420;-71
2022/07/13 02:53:41;;;;;;;;;12.67;9.33;;;;;26.53;34.53;101659.03;5057729;28;45398;-71
2022/07/13 02:56:07;;;;;;;;;11.00;10.33;;;;;26.36;34.70;101629.44;5056463;28;45426;-70
2022/07/13 02:58:33;;;;;;;;;9.00;9.00;;;;;26.55;34.26;101658.97;5055112;28;45399;-73
2022/07/13 03:01:02;;;;;;;;;12.00;10.33;;;;;26.50;34.77;101648.41;5055667;28;45476;-72
2022/07/13 03:03:28;;;;;;;;;10.00;9.00;;;;;26.56;34.68;101648.16;5048753;28;46743;-73
2022/07/13 03:05:56;;;;;;;;;9.67;9.00;;;;;26.54;34.70;101655.41;5048499;28;45410;-71
2022/07/13 03:08:22;;;;;;;;;9.67;9.67;;;;;26.54;34.85;101659.94;5054569;28;45570;-71
2022/07/13 03:10:47;;;;;;;;;11.00;10.00;;;;;26.30;34.76;101632.44;5059133;28;45300;-73
2022/07/13 03:13:13;;;;;;;;;14.33;9.00;;;;;26.39;34.87;101656.16;5055501;28;45600;-72
2022/07/13 03:15:39;;;;;;;;;8.33;8.33;;;;;26.38;35.29;101659.78;5046339;28;45450;-71
2022/07/13 03:18:04;;;;;;;;;9.00;8.00;;;;;26.27;35.30;101654.06;5050844;28;45411;-73
2022/07/13 03:20:30;;;;;;;;;10.00;10.00;;;;;26.28;35.38;101654.00;5048980;28;45442;-71
2022/07/13 03:22:58;;;;;;;;;11.33;11.00;;;;;26.14;35.86;101637.69;5051021;28;45927;-70
2022/07/13 03:25:23;;;;;;;;;10.67;10.33;;;;;26.12;35.88;101636.91;5055705;28;45430;-71
2022/07/13 03:27:49;;;;;;;;;11.00;10.00;;;;;26.26;35.97;101660.41;5055771;28;45456;-71
2022/07/13 03:30:14;;;;;;;;;8.67;6.67;;;;;26.10;35.47;101618.22;5055607;28;45540;-71
2022/07/13 03:32:40;;;;;;;;;9.67;9.00;;;;;26.28;35.44;101643.25;5055218;28;45786;-71
2022/07/13 03:35:06;;;;;;;;;9.00;9.00;;;;;26.33;35.59;101656.47;5056946;28;45354;-71
2022/07/13 03:37:32;;;;;;;;;7.00;7.00;;;;;26.34;36.24;101647.44;5056947;28;45465;-71
2022/07/13 03:39:57;;;;;;;;;8.33;7.33;;;;;26.33;36.07;101651.94;5056024;28;45303;-71
2022/07/13 03:42:22;;;;;;;;;9.33;8.00;;;;;26.41;36.10;101659.63;5055573;28;45519;-71
2022/07/13 03:44:48;;;;;;;;;12.00;9.00;;;;;26.35;36.54;101662.63;5055327;28;45491;-71
2022/07/13 03:47:14;;;;;;;;;11.00;11.00;;;;;26.33;36.12;101656.47;5055364;28;45421;-72
2022/07/13 03:49:39;;;;;;;;;9.67;9.67;;;;;26.19;36.18;101649.06;5055704;28;45807;-70
2022/07/13 03:52:05;;;;;;;;;10.33;10.00;;;;;26.20;36.11;101651.69;5056057;28;47769;-72
2022/07/13 03:54:31;;;;;;;;;9.00;8.00;;;;;26.30;36.38;101662.00;5053155;28;45504;-72
2022/07/13 03:56:57;;;;;;;;;9.00;9.00;;;;;26.29;36.01;101657.56;5050590;28;45426;-71
2022/07/13 03:59:22;;;;;;;;;10.00;10.00;;;;;26.34;35.88;101652.81;5059449;28;45354;-71
2022/07/13 04:01:48;;;;;;;;;13.00;11.67;;;;;26.43;36.15;101660.41;5059111;28;45678;-71
2022/07/13 04:04:14;;;;;;;;;8.33;8.33;;;;;26.43;36.19;101663.09;5056167;28;45368;-73
2022/07/13 04:06:39;;;;;;;;;8.67;7.00;;;;;26.45;36.81;101658.53;5054194;28;45474;-72
2022/07/13 04:09:05;;;;;;;;;11.00;7.33;;;;;26.42;36.35;101656.88;5057414;28;45421;-71
2022/07/13 04:11:30;;;;;;;;;11.33;10.33;;;;;26.31;36.21;101634.19;5053521;28;45419;-72
2022/07/13 04:13:56;;;;;;;;;10.67;9.33;;;;;26.52;36.22;101669.84;5054400;28;45601;-71
2022/07/13 04:16:21;;;;;;;;;9.00;8.00;;;;;26.46;36.81;101657.59;5054099;28;45461;-71
2022/07/13 04:18:47;;;;;;;;;11.67;10.00;;;;;26.53;36.78;101658.13;5056884;28;45943;-70
2022/07/13 04:21:14;;;;;;;;;10.67;9.00;;;;;26.50;36.21;101648.41;5059685;28;46008;-71
2022/07/13 04:23:40;;;;;;;;;11.33;8.67;;;;;26.63;35.80;101664.84;5058642;28;45339;-70
2022/07/13 04:26:06;;;;;;;;;7.67;7.67;;;;;26.60;36.43;101656.91;5059294;28;45367;-71
2022/07/13 04:28:32;;;;;;;;;8.00;8.00;;;;;26.68;35.66;101659.22;5053215;28;45589;-71
2022/07/13 04:30:58;;;;;;;;;8.00;8.00;;;;;26.68;35.57;101665.47;5047285;28;45470;-72
2022/07/13 04:33:23;;;;;;;;;11.00;9.33;;;;;26.70;34.34;101654.66;5039007;28;45411;-72
2022/07/13 04:35:49;;;;;;;;;9.33;8.00;;;;;26.72;35.01;101663.47;5037886;28;45317;-72
2022/07/13 04:38:15;;;;;;;;;13.67;11.00;;;;;26.73;34.71;101659.88;5037508;28;45624;-71
2022/07/13 04:40:40;;;;;;;;;10.33;10.33;;;;;26.45;35.92;101645.09;5034327;28;45430;-71
2022/07/13 04:43:06;;;;;;;;;12.00;12.00;;;;;26.50;35.84;101664.53;5038507;28;45980;-71
2022/07/13 04:45:32;;;;;;;;;9.00;8.33;;;;;26.40;35.95;101636.41;5038230;28;45511;-72
2022/07/13 04:47:58;;;;;;;;;10.00;10.00;;;;;26.35;36.34;101635.78;5038696;28;45336;-70
2022/07/13 04:50:24;;;;;;;;;8.00;8.00;;;;;26.39;36.80;101654.34;5035305;28;45765;-71
2022/07/13 04:52:50;;;;;;;;;11.33;10.00;;;;;26.35;36.45;101654.56;5033736;28;45317;-72
2022/07/13 04:55:16;;;;;;;;;11.33;10.67;;;;;26.35;36.69;101652.75;5033837;28;45523;-71
2022/07/13 04:57:42;;;;;;;;;11.00;10.33;;;;;26.35;36.69;101657.25;5052581;28;45441;-72
2022/07/13 05:00:09;;;;;;;;;11.00;11.00;;;;;26.08;36.80;101614.72;5053853;28;45376;-71
2022/07/13 05:02:35;;;;;;;;;12.67;12.00;;;;;26.31;36.89;101650.28;5053810;28;45721;-71
2022/07/13 05:05:02;;;;;;;;;11.00;11.00;;;;;26.30;37.28;101652.13;5053888;28;45581;-72
2022/07/13 05:07:28;;;;;;;;;11.00;9.00;;;;;26.31;37.23;101659.22;5054236;28;45414;-71
2022/07/13 05:09:57;;;;;;;;;14.00;12.33;;;;;25.83;37.68;101593.53;5053418;28;45500;-70
2022/07/13 05:12:23;;;;;;;;;16.00;11.67;;;;;26.08;38.06;101657.69;5036424;28;45706;-71
2022/07/13 05:14:48;;;;;;;;;10.67;9.00;;;;;26.09;38.21;101658.53;5055926;28;45412;-72
2022/07/13 05:17:14;;;;;;;;;15.33;12.00;;;;;26.14;37.69;101664.53;5036177;28;45406;-71
2022/07/13 05:19:40;;;;;;;;;12.00;11.67;;;;;26.09;37.90;101658.53;5053851;28;45610;-73
2022/07/13 05:22:06;;;;;;;;;12.00;11.00;;;;;26.04;38.09;101650.72;5052706;28;45353;-72
2022/07/13 05:24:32;;;;;;;;;11.67;9.67;;;;;25.96;37.80;101632.28;5053735;28;45312;-72
2022/07/13 05:26:58;;;;;;;;;12.33;12.33;;;;;26.15;38.22;101663.59;5053815;28;45858;-71
2022/07/13 05:29:23;;;;;;;;;11.33;10.00;;;;;25.99;38.38;101645.56;5055228;28;46547;-72
2022/07/13 05:31:49;;;;;;;;;10.00;10.00;;;;;26.12;38.39;101667.28;5058027;28;45301;-72
2022/07/13 05:34:16;;;;;;;;;11.00;11.00;;;;;26.07;38.62;101657.75;5054847;28;45440;-71
2022/07/13 05:36:45;;;;;;;;;10.33;10.33;;;;;25.92;39.23;101635.19;5054217;28;45574;-73
2022/07/13 05:39:10;;;;;;;;;12.00;12.00;;;;;26.08;38.85;101668.41;5057753;28;45346;-75
2022/07/13 05:41:36;;;;;;;;;14.00;11.67;;;;;26.09;38.83;101671.97;5057509;28;45433;-72
2022/07/13 05:44:01;;;;;;;;;10.67;10.67;;;;;26.07;39.03;101657.75;5037406;28;45477;-70
2022/07/13 05:46:27;;;;;;;;;15.33;13.00;;;;;25.87;38.79;101624.69;5053591;28;45493;-72
2022/07/13 05:48:53;;;;;;;;;16.67;11.33;;;;;26.21;38.96;101669.53;5053064;28;45672;-72
2022/07/13 05:51:18;;;;;;;;;11.67;11.00;;;;;26.22;39.24;101671.28;5038302;28;45558;-71
2022/07/13 05:53:46;;;;;;;;;11.67;11.00;;;;;26.17;39.44;101650.97;5039314;28;45260;-71
2022/07/13 05:56:13;;;;;;;;;17.67;15.00;;;;;26.23;39.28;101661.41;5043404;28;45403;-72
2022/07/13 05:58:39;;;;;;;;;17.33;14.33;;;;;26.33;39.46;101677.94;5055187;28;46021;-72
2022/07/13 06:01:05;;;;;;;;;16.00;13.00;;;;;26.37;39.17;101674.16;5052869;28;45450;-70
2022/07/13 06:03:30;;;;;;;;;17.33;12.33;;;;;26.25;39.83;101669.41;5053394;28;45426;-71
2022/07/13 06:05:56;;;;;;;;;11.67;11.67;;;;;26.33;39.63;101669.88;5052868;28;45377;-71
2022/07/13 06:08:21;;;;;;;;;15.00;13.33;;;;;26.31;39.82;101667.28;5053290;28;45394;-72
2022/07/13 06:10:47;;;;;;;;;13.33;12.67;;;;;26.40;39.40;101674.00;5052859;28;45460;-72
2022/07/13 06:13:12;;;;;;;;;14.67;11.33;;;;;26.34;39.36;101660.88;5052934;28;45556;-72
2022/07/13 06:15:38;;;;;;;;;11.67;11.67;;;;;26.48;39.62;101681.69;5053221;28;45807;-71
2022/07/13 06:18:07;;;;;;;;;11.00;11.00;;;;;26.44;39.39;101660.34;5052358;28;45370;-73
2022/07/13 06:20:35;;;;;;;;;13.67;11.33;;;;;26.62;39.13;101680.09;5052816;28;45458;-73
2022/07/13 06:23:10;;;;;;;;;14.33;11.33;;;;;26.54;39.23;101657.25;5038587;28;45537;-73
2022/07/13 06:25:40;;;;;;;;;15.67;12.67;;;;;26.67;39.41;101679.84;5057424;28;45959;-72
2022/07/13 06:28:06;;;;;;;;;14.67;12.33;;;;;26.62;39.42;101680.09;5054251;28;45406;-72
2022/07/13 06:30:33;;;;;;;;;11.00;9.00;;;;;26.74;39.79;101692.03;5052850;28;45497;-72
2022/07/13 06:32:59;;;;;;;;;16.00;13.00;;;;;26.69;39.90;101669.88;5052397;28;45783;-73
2022/07/13 06:35:24;;;;;;;;;15.67;14.00;;;;;26.71;39.39;101676.06;5056265;28;45564;-73
2022/07/13 06:37:50;;;;;;;;;12.67;12.00;;;;;26.76;39.42;101679.38;5058713;28;45460;-71
2022/07/13 06:40:16;;;;;;;;;16.67;14.00;;;;;26.84;39.19;101687.06;5056073;28;45602;-72
2022/07/13 06:42:42;;;;;;;;;13.00;11.33;;;;;26.80;39.10;101669.34;5056397;28;45833;-72
2022/07/13 06:45:08;;;;;;;;;15.00;12.33;;;;;26.91;38.80;101680.44;5056746;28;46354;-72
2022/07/13 06:47:34;;;;;;;;;12.33;11.00;;;;;27.00;39.29;101668.31;5055208;28;46002;-72
2022/07/13 06:49:59;;;;;;;;;18.00;15.00;;;;;27.10;38.50;101671.38;5055579;28;45477;-71
2022/07/13 06:52:25;;;;;;;;;1.67;1.00;;;;;27.03;39.00;101662.78;5050521;28;45554;-74
2022/07/13 06:54:50;;;;;;;;;16.33;13.33;;;;;27.13;38.26;101672.09;5046952;28;45384;-73
2022/07/13 06:57:16;;;;;;;;;12.00;11.00;;;;;27.21;38.54;101674.41;5040700;28;45555;-71
2022/07/13 06:59:42;;;;;;;;;16.67;13.00;;;;;27.22;38.53;101668.97;5036560;28;45350;-71
2022/07/13 07:02:08;;;;;;;;;13.67;12.33;;;;;27.35;38.56;101679.06;5034879;28;45910;-70
2022/07/13 07:04:34;;;;;;;;;16.33;12.00;;;;;27.48;38.34;101680.16;5035368;28;45747;-72
2022/07/13 07:07:00;;;;;;;;;13.33;11.00;;;;;27.70;37.82;101674.44;5036096;28;45480;-71
2022/07/13 07:09:26;;;;;;;;;12.33;11.00;;;;;27.89;37.66;101661.72;5037568;28;45422;-70
2022/07/13 07:11:52;;;;;;;;;16.33;14.33;;;;;27.97;36.49;101665.81;5035336;28;45452;-72
2022/07/13 07:14:17;;;;;;;;;12.67;12.33;;;;;28.27;36.23;101672.13;5038798;28;45637;-72
2022/07/13 07:16:43;;;;;;;;;11.33;10.00;;;;;28.52;35.58;101671.63;5036265;28;46216;-70
2022/07/13 07:19:09;;;;;;;;;14.67;11.33;;;;;28.85;34.65;101681.34;5035583;28;45553;-72
2022/07/13 07:21:36;;;;;;;;;9.67;8.33;;;;;29.10;32.58;101675.38;5035110;28;45396;-72
2022/07/13 07:24:03;;;;;;;;;8.67;7.33;;;;;29.06;32.53;101664.81;5037503;28;45579;-74
2022/07/13 07:26:30;;;;;;;;;9.00;8.00;;;;;29.38;31.78;101666.44;5033194;28;47591;-71
2022/07/13 07:28:56;;;;;;;;;7.25;7.25;;;;;29.73;31.16;101668.78;5037879;28;45501;-73
2022/07/13 07:31:22;;;;;;;;;5.00;5.00;;;;;29.90;29.74;101673.09;5041288;28;45489;-69
2022/07/13 07:33:48;;;;;;;;;6.50;6.00;;;;;29.91;29.70;101676.66;5041260;28;45332;-71
2022/07/13 07:36:15;;;;;;;;;5.50;5.25;;;;;29.83;29.41;101666.34;5036497;28;46093;-70
2022/07/13 07:38:41;;;;;;;;;6.00;6.00;;;;;29.89;29.21;101690.22;5038389;28;45506;-70
2022/07/13 07:41:06;;;;;;;;;5.25;5.25;;;;;29.80;28.57;101667.41;5036732;28;45564;-70
2022/07/13 07:43:32;;;;;;;;;5.00;5.00;;;;;29.91;29.38;101676.66;5034838;28;45458;-69
2022/07/13 07:45:57;;;;;;;;;7.25;6.50;;;;;30.05;28.75;101673.03;5034863;28;46530;-69
2022/07/13 07:49:05;;;;;;;;;3.75;3.75;;;;;30.08;28.37;101656.63;5162706;27;45425;-68
2022/07/13 07:51:30;;;;;;;;;4.00;4.00;;;;;30.19;27.51;101670.31;5152967;27;45578;-68
2022/07/13 07:53:56;;;;;;;;;4.75;3.25;;;;;30.30;27.82;101666.91;5151528;27;45505;-69
2022/07/13 07:56:23;;;;;;;;;6.00;3.75;;;;;30.38;27.98;101668.13;5152463;27;45624;-69
2022/07/13 07:58:48;;;;;;;;;4.25;4.25;;;;;30.42;27.17;101666.09;5152758;27;46193;-69
2022/07/13 08:01:14;;;;;;;;;5.75;3.25;;;;;30.48;27.69;101664.81;5152583;27;45427;-69
2022/07/13 08:03:40;;;;;;;;;2.25;2.25;;;;;30.54;27.39;101665.28;5154761;27;45413;-70
2022/07/13 08:06:05;;;;;;;;;6.00;4.00;;;;;30.59;27.03;101670.38;5154461;27;45506;-69
2022/07/13 08:08:31;;;;;;;;;7.25;5.00;;;;;30.61;26.92;101661.19;5152831;27;46225;-70
2022/07/13 08:10:57;;;;;;;;;3.00;3.00;;;;;30.63;27.33;101667.38;5156371;27;45409;-70
2022/07/13 08:13:22;;;;;;;;;5.75;5.00;;;;;30.63;27.38;101664.66;5157375;27;45311;-69
2022/07/13 08:15:48;;;;;;;;;8.75;5.25;;;;;30.55;27.22;101660.72;5155430;27;45280;-70
2022/07/13 08:18:13;;;;;;;;;4.00;4.00;;;;;30.44;27.15;101658.75;5133223;27;46590;-70
2022/07/13 08:20:39;;;;;;;;;4.00;4.00;;;;;30.49;27.75;101655.72;5152438;27;45226;-70
2022/07/13 08:23:51;;;;;;;;;8.25;5.75;;;;;30.52;27.38;101659.09;5152657;27;45544;-68
2022/07/13 08:25:53;;;;;;;;;7.00;6.75;;;;;30.45;27.31;101662.34;5156818;27;45364;-67
2022/07/13 08:28:19;;;;;;;;;5.00;4.00;;;;;30.43;27.59;101657.88;5156367;27;45320;-70
2022/07/13 08:30:45;;;;;;;;;8.50;6.75;;;;;30.48;27.35;101662.97;5156968;27;45369;-70
2022/07/13 08:33:11;;;;;;;;;5.50;5.50;;;;;30.36;27.53;101632.22;5156893;27;45534;-68
2022/07/13 08:38:35;;;;;;;;;7.50;4.50;;;;;30.65;27.51;101662.69;5156343;27;45774;-70
2022/07/13 08:41:02;;;;;;;;;5.20;4.00;;;;;30.71;27.58;101664.13;5156573;27;45398;-70
2022/07/13 08:43:28;;;;;;;;;4.25;4.25;;;;;30.79;28.03;101660.88;5153867;27;45772;-70
2022/07/13 08:45:54;;;;;;;;;6.00;4.25;;;;;30.73;27.08;101667.59;5152654;27;45394;-71
2022/07/13 08:48:29;;;;;;;;;5.75;5.00;;;;;30.57;27.14;101646.13;5151609;27;46222;-69
2022/07/13 08:50:55;;;;;;;;;5.00;5.00;;;;;30.74;27.84;101652.22;5137090;27;45415;-69
2022/07/13 08:53:22;;;;;;;;;4.25;4.25;;;;;30.94;28.26;101656.28;5151995;27;45437;-70
2022/07/13 08:55:49;;;;;;;;;3.75;3.75;;;;;31.09;27.08;101657.06;5118533;27;45444;-69
2022/07/13 08:58:16;;;;;;;;;4.50;4.50;;;;;31.15;27.10;101652.06;5150144;27;46265;-69
2022/07/13 09:00:42;;;;;;;;;6.80;4.00;;;;;31.14;27.16;101649.50;5137728;27;45290;-70
2022/07/13 09:03:09;;;;;;;;;4.75;4.00;;;;;31.23;26.80;101638.03;5137942;27;45936;-70
2022/07/13 09:05:35;;;;;;;;;5.50;4.25;;;;;31.49;26.96;101641.59;5105530;27;45484;-70
2022/07/13 09:08:06;;;;;;;;;7.75;5.00;;;;;31.53;26.80;101637.66;5137217;27;46074;-70
2022/07/13 09:10:49;;;;;;;;;6.25;6.25;;;;;31.40;27.08;101648.53;5138140;27;45365;-70
2022/07/13 09:13:33;;;;;;;;;7.75;7.00;;;;;31.64;26.78;101640.47;5125500;27;45417;-69
2022/07/13 09:16:13;;;;;;;;;5.00;5.00;;;;;31.77;26.18;101631.44;5137997;27;45460;-70
2022/07/13 09:18:40;;;;;;;;;4.75;4.75;;;;;31.74;25.79;101651.50;5137493;27;45354;-70
2022/07/13 09:21:07;;;;;;;;;4.25;4.25;;;;;31.66;26.84;101646.66;5137301;27;45777;-71
2022/07/13 09:23:32;;;;;;;;;5.50;5.50;;;;;31.54;26.26;101644.84;5140872;27;45355;-71
2022/07/13 09:25:58;;;;;;;;;3.25;3.00;;;;;31.59;26.58;101618.28;5138438;27;45387;-70
2022/07/13 09:28:24;;;;;;;;;7.00;6.00;;;;;31.87;25.95;101637.94;5137518;27;45503;-70
2022/07/13 09:30:50;;;;;;;;;5.00;4.00;;;;;32.03;25.47;101629.53;5119025;27;45721;-71
2022/07/13 09:33:31;;;;;;;;;4.00;4.00;;;;;31.98;25.12;101620.91;5137515;27;45496;-72
2022/07/13 09:35:58;;;;;;;;;5.50;5.00;;;;;31.99;25.43;101638.91;5137827;27;45486;-70
2022/07/13 09:38:28;;;;;;;;;4.75;4.75;;;;;31.87;25.50;101618.97;5137698;27;45594;-70
2022/07/13 09:40:54;;;;;;;;;6.75;6.75;;;;;31.91;25.63;101634.00;5119426;27;45504;-69
2022/07/13 09:46:10;;;;;;;;;4.00;4.00;;;;;32.08;25.70;101625.53;5137092;27;45509;-69
2022/07/13 09:48:39;;;;;;;;;5.00;4.00;;;;;32.23;24.13;101634.34;5137807;27;45347;-70
2022/07/13 09:51:08;;;;;;;;;3.00;3.00;;;;;32.23;24.06;101620.78;5137473;27;45500;-69
2022/07/13 09:53:36;;;;;;;;;3.20;3.20;;;;;32.41;23.59;101634.75;5138294;27;45477;-70
2022/07/13 09:56:13;;;;;;;;;5.00;4.50;;;;;32.43;23.60;101627.38;5137784;27;45524;-71
2022/07/13 09:58:40;;;;;;;;;3.75;3.75;;;;;32.38;23.58;101604.31;5122406;27;48249;-72
2022/07/13 10:01:06;;;;;;;;;3.80;3.40;;;;;32.55;23.77;101633.75;5140062;27;45431;-72
2022/07/13 10:03:32;;;;;;;;;5.75;5.00;;;;;32.55;23.82;101619.34;5125246;27;45429;-71
2022/07/13 10:06:01;;;;;;;;;4.00;4.00;;;;;32.49;23.50;101616.09;5121440;27;45436;-71
2022/07/13 10:08:28;;;;;;;;;3.75;3.75;;;;;32.53;23.23;101627.56;5139158;27;46187;-69
2022/07/13 10:10:53;;;;;;;;;4.20;3.00;;;;;32.28;23.38;101593.34;5139352;27;45278;-70
2022/07/13 10:13:20;;;;;;;;;4.00;4.00;;;;;32.47;22.99;101612.63;5121110;27;45456;-69
2022/07/13 10:15:46;;;;;;;;;4.75;4.75;;;;;32.51;22.91;101603.31;5139755;27;45503;-72
2022/07/13 10:18:19;;;;;;;;;3.25;3.25;;;;;32.62;23.12;101610.59;5139823;27;46064;-70
2022/07/13 10:20:52;;;;;;;;;5.00;5.00;;;;;32.77;22.56;101618.50;5139461;27;45412;-69
2022/07/13 10:23:34;;;;;;;;;5.40;4.20;;;;;32.71;22.32;101611.72;5139536;27;45382;-70
2022/07/13 10:26:01;;;;;;;;;4.00;4.00;;;;;32.82;22.88;101619.00;5139161;27;45679;-70
2022/07/13 10:28:28;;;;;;;;;3.50;3.50;;;;;32.81;22.13;101629.00;5136864;27;45596;-71
2022/07/13 10:30:54;;;;;;;;;4.20;4.20;;;;;32.79;21.92;101625.53;5137523;27;45462;-69
2022/07/13 10:33:22;;;;;;;;;6.00;4.20;;;;;32.73;22.51;101618.75;5137894;27;45303;-70
2022/07/13 10:35:52;;;;;;;;;4.50;4.00;;;;;32.80;22.33;101616.44;5138557;27;45305;-71
2022/07/13 10:38:20;;;;;;;;;4.25;4.00;;;;;32.99;22.96;101628.56;5137178;27;46266;-69
2022/07/13 10:40:46;;;;;;;;;4.00;4.00;;;;;33.12;22.60;101623.91;5137169;27;45838;-72
2022/07/13 10:43:14;;;;;;;;;3.80;3.80;;;;;33.09;22.64;101597.03;5137434;27;45406;-69
2022/07/13 10:45:48;;;;;;;;;3.75;3.75;;;;;33.29;22.66;101619.84;5119765;27;45682;-70
2022/07/13 10:48:16;;;;;;;;;3.20;3.20;;;;;33.34;22.75;101621.22;5141568;27;45294;-71
2022/07/13 10:50:54;;;;;;;;;4.80;3.40;;;;;33.22;22.60;101584.22;5138776;27;45412;-70
2022/07/13 10:53:50;;;;;;;;;4.40;4.40;;;;;33.50;22.37;101622.69;5137165;27;45379;-68
2022/07/13 10:56:20;;;;;;;;;4.00;3.00;;;;;33.64;22.27;101618.88;5137452;27;45466;-69
2022/07/13 10:58:49;;;;;;;;;4.00;4.00;;;;;33.66;22.47;101600.59;5136639;27;45746;-70
2022/07/13 11:01:44;;;;;;;;;4.00;4.00;;;;;33.87;22.16;101611.56;5136209;27;45434;-74
2022/07/13 11:04:15;;;;;;;;;4.00;4.00;;;;;33.96;22.22;101611.66;5136799;27;45364;-71
2022/07/13 11:07:05;;;;;;;;;5.25;5.25;;;;;34.05;22.03;101612.69;5136876;27;45719;-70
2022/07/13 11:09:31;;;;;;;;;4.00;4.00;;;;;34.12;22.08;101613.09;5117024;27;45440;-70
2022/07/13 11:11:56;;;;;;;;;6.50;6.25;;;;;33.95;22.20;101576.44;5136085;27;45451;-70
2022/07/13 11:14:40;;;;;;;;;5.25;5.25;;;;;34.20;22.39;101621.47;5140011;27;45417;-70
2022/07/13 11:17:19;;;;;;;;;7.00;5.25;;;;;34.21;22.08;101605.00;5140765;27;45444;-71
2022/07/13 11:19:58;;;;;;;;;4.00;3.60;;;;;34.33;22.43;101610.41;5137146;27;45770;-70
2022/07/13 11:25:13;;;;;;;;;5.80;4.40;;;;;34.37;22.39;101601.88;5116444;27;45530;-70
2022/07/13 11:25:46;;;;;;;;;2.60;2.60;;;;;34.44;22.23;101607.66;5139132;27;45628;-72
2022/07/13 11:28:28;;;;;;;;;3.50;3.50;;;;;34.52;22.27;101605.13;5094612;27;45672;-70